sensor_id;sensor_type;location;lat;lon;timestamp;temperature;humidity
15099;DHT22;33900;53.640;9.942;2023-09-12T00:01:29;23.10;90.20
15099;DHT22;33900;53.640;9.942;2023-09-12T00:03:58;23.10;90.30
15099;DHT22;33900;53.640;9.942;2023-09-12T00:06:23;23.10;90.30
15099;DHT22;33900;53.640;9.942;2023-09-12T00:08:49;23.10;90.30
15099;DHT22;33900;53.640;9.942;2023-09-12T00:11:16;23.00;90.30
15099;DHT22;33900;53.640;9.942;2023-09-12T00:13:42;23.00;90.30
15099;DHT22;33900;53.640;9.942;2023-09-12T00:16:08;23.00;90.40
15099;DHT22;33900;53.640;9.942;2023-09-12T00:18:37;23.00;90.40
15099;DHT22;33900;53.640;9.942;2023-09-12T00:21:02;23.00;90.40
15099;DHT22;33900;53.640;9.942;2023-09-12T00:23:28;23.00;90.40
15099;DHT22;33900;53.640;9.942;2023-09-12T00:25:54;23.00;90.50
15099;DHT22;33900;53.640;9.942;2023-09-12T00:28:19;23.00;90.50
15099;DHT22;33900;53.640;9.942;2023-09-12T00:30:45;23.00;90.50
15099;DHT22;33900;53.640;9.942;2023-09-12T00:33:11;23.00;90.50
15099;DHT22;33900;53.640;9.942;2023-09-12T00:35:36;23.00;90.60
15099;DHT22;33900;53.640;9.942;2023-09-12T00:38:02;23.00;90.60
15099;DHT22;33900;53.640;9.942;2023-09-12T00:40:28;23.00;90.60
15099;DHT22;33900;53.640;9.942;2023-09-12T00:42:54;23.00;90.70
15099;DHT22;33900;53.640;9.942;2023-09-12T00:45:19;23.00;90.70
15099;DHT22;33900;53.640;9.942;2023-09-12T00:47:45;22.90;90.70
15099;DHT22;33900;53.640;9.942;2023-09-12T00:50:11;22.90;90.80
15099;DHT22;33900;53.640;9.942;2023-09-12T00:52:37;22.90;90.70
15099;DHT22;33900;53.640;9.942;2023-09-12T00:55:04;22.90;90.70
15099;DHT22;33900;53.640;9.942;2023-09-12T00:57:30;22.90;90.80
15099;DHT22;33900;53.640;9.942;2023-09-12T00:59:56;22.90;90.80
15099;DHT22;33900;53.640;9.942;2023-09-12T01:02:24;22.90;90.90
15099;DHT22;33900;53.640;9.942;2023-09-12T01:04:50;22.80;90.90
15099;DHT22;33900;53.640;9.942;2023-09-12T01:07:16;22.80;90.90
15099;DHT22;33900;53.640;9.942;2023-09-12T01:09:42;22.80;90.90
15099;DHT22;33900;53.640;9.942;2023-09-12T01:12:08;22.80;90.90
15099;DHT22;33900;53.640;9.942;2023-09-12T01:14:34;22.80;90.90
15099;DHT22;33900;53.640;9.942;2023-09-12T01:16:59;22.80;90.90
15099;DHT22;33900;53.640;9.942;2023-09-12T01:19:26;22.80;90.90
15099;DHT22;33900;53.640;9.942;2023-09-12T01:27:20;22.80;91.00
15099;DHT22;33900;53.640;9.942;2023-09-12T01:29:48;22.80;91.00
15099;DHT22;33900;53.640;9.942;2023-09-12T01:32:14;22.70;91.00
15099;DHT22;33900;53.640;9.942;2023-09-12T01:34:41;22.70;91.00
15099;DHT22;33900;53.640;9.942;2023-09-12T01:37:16;22.70;91.10
15099;DHT22;33900;53.640;9.942;2023-09-12T01:39:41;22.70;91.10
15099;DHT22;33900;53.640;9.942;2023-09-12T01:42:08;22.70;91.10
15099;DHT22;33900;53.640;9.942;2023-09-12T01:44:35;22.70;91.10
15099;DHT22;33900;53.640;9.942;2023-09-12T01:47:03;22.70;91.10
15099;DHT22;33900;53.640;9.942;2023-09-12T01:49:29;22.70;91.10
15099;DHT22;33900;53.640;9.942;2023-09-12T01:51:55;22.70;91.10
15099;DHT22;33900;53.640;9.942;2023-09-12T01:54:21;22.70;91.10
15099;DHT22;33900;53.640;9.942;2023-09-12T01:56:48;22.70;91.10
15099;DHT22;33900;53.640;9.942;2023-09-12T01:59:13;22.70;91.20
15099;DHT22;33900;53.640;9.942;2023-09-12T02:01:39;22.70;91.20
15099;DHT22;33900;53.640;9.942;2023-09-12T02:04:05;22.70;91.20
15099;DHT22;33900;53.640;9.942;2023-09-12T02:06:34;22.70;91.20
15099;DHT22;33900;53.640;9.942;2023-09-12T02:09:00;22.70;91.20
15099;DHT22;33900;53.640;9.942;2023-09-12T02:11:26;22.60;91.20
15099;DHT22;33900;53.640;9.942;2023-09-12T02:13:51;22.70;91.30
15099;DHT22;33900;53.640;9.942;2023-09-12T02:16:17;22.60;91.30
15099;DHT22;33900;53.640;9.942;2023-09-12T02:18:43;22.60;91.30
15099;DHT22;33900;53.640;9.942;2023-09-12T02:24:02;22.60;91.30
15099;DHT22;33900;53.640;9.942;2023-09-12T02:26:28;22.60;91.30
15099;DHT22;33900;53.640;9.942;2023-09-12T02:28:54;22.60;91.30
15099;DHT22;33900;53.640;9.942;2023-09-12T02:31:19;22.60;91.30
15099;DHT22;33900;53.640;9.942;2023-09-12T02:33:45;22.60;91.40
15099;DHT22;33900;53.640;9.942;2023-09-12T02:36:10;22.60;91.40
15099;DHT22;33900;53.640;9.942;2023-09-12T02:38:36;22.60;91.40
15099;DHT22;33900;53.640;9.942;2023-09-12T02:41:02;22.60;91.40
15099;DHT22;33900;53.640;9.942;2023-09-12T02:43:28;22.60;91.40
15099;DHT22;33900;53.640;9.942;2023-09-12T02:45:54;22.60;91.40
15099;DHT22;33900;53.640;9.942;2023-09-12T02:48:20;22.60;91.40
15099;DHT22;33900;53.640;9.942;2023-09-12T02:50:46;22.60;91.50
15099;DHT22;33900;53.640;9.942;2023-09-12T02:53:11;22.60;91.50
15099;DHT22;33900;53.640;9.942;2023-09-12T02:55:41;22.60;91.50
15099;DHT22;33900;53.640;9.942;2023-09-12T02:58:07;22.60;91.50
15099;DHT22;33900;53.640;9.942;2023-09-12T03:00:33;22.60;91.50
15099;DHT22;33900;53.640;9.942;2023-09-12T03:03:03;22.50;91.50
15099;DHT22;33900;53.640;9.942;2023-09-12T03:05:28;22.60;91.50
15099;DHT22;33900;53.640;9.942;2023-09-12T03:07:54;22.60;91.50
15099;DHT22;33900;53.640;9.942;2023-09-12T03:10:19;22.60;91.50
15099;DHT22;33900;53.640;9.942;2023-09-12T03:12:45;22.60;91.50
15099;DHT22;33900;53.640;9.942;2023-09-12T03:15:11;22.60;91.50
15099;DHT22;33900;53.640;9.942;2023-09-12T03:17:37;22.60;91.60
15099;DHT22;33900;53.640;9.942;2023-09-12T03:20:03;22.60;91.50
15099;DHT22;33900;53.640;9.942;2023-09-12T03:22:32;22.60;91.60
15099;DHT22;33900;53.640;9.942;2023-09-12T03:25:03;22.50;91.60
15099;DHT22;33900;53.640;9.942;2023-09-12T03:27:29;22.60;91.60
15099;DHT22;33900;53.640;9.942;2023-09-12T03:29:54;22.60;91.70
15099;DHT22;33900;53.640;9.942;2023-09-12T03:32:20;22.60;91.70
15099;DHT22;33900;53.640;9.942;2023-09-12T03:34:46;22.50;91.70
15099;DHT22;33900;53.640;9.942;2023-09-12T03:37:12;22.60;91.70
15099;DHT22;33900;53.640;9.942;2023-09-12T03:39:38;22.50;91.70
15099;DHT22;33900;53.640;9.942;2023-09-12T03:42:04;22.50;91.70
15099;DHT22;33900;53.640;9.942;2023-09-12T03:44:30;22.50;91.70
15099;DHT22;33900;53.640;9.942;2023-09-12T03:46:55;22.50;91.70
15099;DHT22;33900;53.640;9.942;2023-09-12T03:49:22;22.50;91.70
15099;DHT22;33900;53.640;9.942;2023-09-12T03:51:47;22.50;91.80
15099;DHT22;33900;53.640;9.942;2023-09-12T03:54:13;22.50;91.80
15099;DHT22;33900;53.640;9.942;2023-09-12T03:56:39;22.50;91.80
15099;DHT22;33900;53.640;9.942;2023-09-12T03:59:05;22.50;91.80
15099;DHT22;33900;53.640;9.942;2023-09-12T04:01:31;22.50;91.90
15099;DHT22;33900;53.640;9.942;2023-09-12T04:03:57;22.40;91.80
15099;DHT22;33900;53.640;9.942;2023-09-12T04:06:23;22.50;91.90
15099;DHT22;33900;53.640;9.942;2023-09-12T04:08:49;22.50;91.90
15099;DHT22;33900;53.640;9.942;2023-09-12T04:11:14;22.50;91.90
15099;DHT22;33900;53.640;9.942;2023-09-12T04:13:40;22.40;92.00
15099;DHT22;33900;53.640;9.942;2023-09-12T04:16:05;22.40;92.00
15099;DHT22;33900;53.640;9.942;2023-09-12T04:18:31;22.40;92.00
15099;DHT22;33900;53.640;9.942;2023-09-12T04:20:57;22.40;92.00
15099;DHT22;33900;53.640;9.942;2023-09-12T04:23:24;22.40;92.00
15099;DHT22;33900;53.640;9.942;2023-09-12T04:25:50;22.40;92.10
15099;DHT22;33900;53.640;9.942;2023-09-12T04:28:15;22.40;92.10
15099;DHT22;33900;53.640;9.942;2023-09-12T04:30:41;22.40;92.10
15099;DHT22;33900;53.640;9.942;2023-09-12T04:33:07;22.30;92.10
15099;DHT22;33900;53.640;9.942;2023-09-12T04:35:42;22.40;92.20
15099;DHT22;33900;53.640;9.942;2023-09-12T04:38:07;22.30;92.20
15099;DHT22;33900;53.640;9.942;2023-09-12T04:40:33;22.30;92.20
15099;DHT22;33900;53.640;9.942;2023-09-12T04:42:59;22.30;92.20
15099;DHT22;33900;53.640;9.942;2023-09-12T04:45:25;22.30;92.20
15099;DHT22;33900;53.640;9.942;2023-09-12T04:47:50;22.30;92.30
15099;DHT22;33900;53.640;9.942;2023-09-12T04:50:16;22.30;92.30
15099;DHT22;33900;53.640;9.942;2023-09-12T04:52:42;22.30;92.30
15099;DHT22;33900;53.640;9.942;2023-09-12T04:55:07;22.30;92.70
15099;DHT22;33900;53.640;9.942;2023-09-12T04:57:33;22.30;92.30
15099;DHT22;33900;53.640;9.942;2023-09-12T04:59:58;22.30;92.30
15099;DHT22;33900;53.640;9.942;2023-09-12T05:02:24;22.30;92.30
15099;DHT22;33900;53.640;9.942;2023-09-12T05:04:51;22.30;92.40
15099;DHT22;33900;53.640;9.942;2023-09-12T05:07:16;22.30;92.40
15099;DHT22;33900;53.640;9.942;2023-09-12T05:09:42;22.30;92.40
15099;DHT22;33900;53.640;9.942;2023-09-12T05:12:08;22.30;92.40
15099;DHT22;33900;53.640;9.942;2023-09-12T05:14:34;22.30;92.50
15099;DHT22;33900;53.640;9.942;2023-09-12T05:16:59;22.30;92.50
15099;DHT22;33900;53.640;9.942;2023-09-12T05:19:27;22.30;92.50
15099;DHT22;33900;53.640;9.942;2023-09-12T05:21:53;22.20;92.50
15099;DHT22;33900;53.640;9.942;2023-09-12T05:24:18;22.30;92.50
15099;DHT22;33900;53.640;9.942;2023-09-12T05:26:44;22.20;92.50
15099;DHT22;33900;53.640;9.942;2023-09-12T05:29:09;22.30;92.50
15099;DHT22;33900;53.640;9.942;2023-09-12T05:31:35;22.20;92.50
15099;DHT22;33900;53.640;9.942;2023-09-12T05:34:01;22.30;92.50
15099;DHT22;33900;53.640;9.942;2023-09-12T05:36:36;22.30;92.60
15099;DHT22;33900;53.640;9.942;2023-09-12T05:39:01;22.30;92.60
15099;DHT22;33900;53.640;9.942;2023-09-12T05:41:29;22.30;92.60
15099;DHT22;33900;53.640;9.942;2023-09-12T05:43:55;22.20;92.60
15099;DHT22;33900;53.640;9.942;2023-09-12T05:46:20;22.20;92.60
15099;DHT22;33900;53.640;9.942;2023-09-12T05:48:46;22.20;92.60
15099;DHT22;33900;53.640;9.942;2023-09-12T05:51:12;22.20;92.60
15099;DHT22;33900;53.640;9.942;2023-09-12T05:53:37;22.30;92.70
15099;DHT22;33900;53.640;9.942;2023-09-12T05:56:03;22.20;92.60
15099;DHT22;33900;53.640;9.942;2023-09-12T05:58:29;22.30;92.70
15099;DHT22;33900;53.640;9.942;2023-09-12T06:00:55;22.30;92.70
15099;DHT22;33900;53.640;9.942;2023-09-12T06:03:20;22.20;92.70
15099;DHT22;33900;53.640;9.942;2023-09-12T06:05:46;22.30;92.70
15099;DHT22;33900;53.640;9.942;2023-09-12T06:08:12;22.30;92.70
15099;DHT22;33900;53.640;9.942;2023-09-12T06:10:37;22.30;92.70
15099;DHT22;33900;53.640;9.942;2023-09-12T06:13:03;22.20;92.70
15099;DHT22;33900;53.640;9.942;2023-09-12T06:15:28;22.20;92.70
15099;DHT22;33900;53.640;9.942;2023-09-12T06:17:54;22.30;92.80
15099;DHT22;33900;53.640;9.942;2023-09-12T06:20:20;22.30;92.80
15099;DHT22;33900;53.640;9.942;2023-09-12T06:22:46;22.20;92.70
15099;DHT22;33900;53.640;9.942;2023-09-12T06:25:11;22.20;92.70
15099;DHT22;33900;53.640;9.942;2023-09-12T06:27:37;22.30;92.80
15099;DHT22;33900;53.640;9.942;2023-09-12T06:30:02;22.20;92.80
15099;DHT22;33900;53.640;9.942;2023-09-12T06:32:28;22.30;92.80
15099;DHT22;33900;53.640;9.942;2023-09-12T06:34:54;22.30;92.80
15099;DHT22;33900;53.640;9.942;2023-09-12T06:37:19;22.30;92.80
15099;DHT22;33900;53.640;9.942;2023-09-12T06:39:48;22.30;92.80
15099;DHT22;33900;53.640;9.942;2023-09-12T06:42:14;22.30;92.80
15099;DHT22;33900;53.640;9.942;2023-09-12T06:44:40;22.30;92.80
15099;DHT22;33900;53.640;9.942;2023-09-12T06:47:05;22.30;92.80
15099;DHT22;33900;53.640;9.942;2023-09-12T06:49:31;22.30;92.80
15099;DHT22;33900;53.640;9.942;2023-09-12T06:52:01;22.30;92.80
15099;DHT22;33900;53.640;9.942;2023-09-12T06:54:27;22.30;92.90
15099;DHT22;33900;53.640;9.942;2023-09-12T06:56:52;22.30;92.80
15099;DHT22;33900;53.640;9.942;2023-09-12T06:59:18;22.30;92.80
15099;DHT22;33900;53.640;9.942;2023-09-12T07:01:44;22.30;92.90
15099;DHT22;33900;53.640;9.942;2023-09-12T07:04:10;22.30;92.80
15099;DHT22;33900;53.640;9.942;2023-09-12T07:06:35;22.30;92.80
15099;DHT22;33900;53.640;9.942;2023-09-12T07:09:01;22.40;92.90
15099;DHT22;33900;53.640;9.942;2023-09-12T07:11:28;22.40;92.90
15099;DHT22;33900;53.640;9.942;2023-09-12T07:13:53;22.40;92.90
15099;DHT22;33900;53.640;9.942;2023-09-12T07:16:19;22.40;92.80
15099;DHT22;33900;53.640;9.942;2023-09-12T07:18:46;22.40;92.90
15099;DHT22;33900;53.640;9.942;2023-09-12T07:21:13;22.40;92.90
15099;DHT22;33900;53.640;9.942;2023-09-12T07:23:38;22.40;92.90
15099;DHT22;33900;53.640;9.942;2023-09-12T07:26:04;22.40;92.90
15099;DHT22;33900;53.640;9.942;2023-09-12T07:28:30;22.40;92.90
15099;DHT22;33900;53.640;9.942;2023-09-12T07:30:56;22.40;92.90
15099;DHT22;33900;53.640;9.942;2023-09-12T07:33:22;22.40;92.90
15099;DHT22;33900;53.640;9.942;2023-09-12T07:35:48;22.40;92.90
15099;DHT22;33900;53.640;9.942;2023-09-12T07:38:13;22.40;93.20
15099;DHT22;33900;53.640;9.942;2023-09-12T07:40:42;22.40;92.90
15099;DHT22;33900;53.640;9.942;2023-09-12T07:43:08;22.50;92.90
15099;DHT22;33900;53.640;9.942;2023-09-12T07:45:35;22.50;92.90
15099;DHT22;33900;53.640;9.942;2023-09-12T07:48:04;22.50;92.90
15099;DHT22;33900;53.640;9.942;2023-09-12T07:50:30;22.50;92.90
15099;DHT22;33900;53.640;9.942;2023-09-12T07:52:56;22.50;92.90
15099;DHT22;33900;53.640;9.942;2023-09-12T07:55:21;22.50;92.90
15099;DHT22;33900;53.640;9.942;2023-09-12T07:57:47;22.50;92.90
15099;DHT22;33900;53.640;9.942;2023-09-12T08:00:12;22.60;92.90
15099;DHT22;33900;53.640;9.942;2023-09-12T08:02:38;22.60;92.90
15099;DHT22;33900;53.640;9.942;2023-09-12T08:05:04;22.60;92.90
15099;DHT22;33900;53.640;9.942;2023-09-12T08:07:30;22.60;92.90
15099;DHT22;33900;53.640;9.942;2023-09-12T08:09:56;22.60;93.30
15099;DHT22;33900;53.640;9.942;2023-09-12T08:12:26;22.60;93.20
15099;DHT22;33900;53.640;9.942;2023-09-12T08:14:52;22.60;93.10
15099;DHT22;33900;53.640;9.942;2023-09-12T08:17:18;22.60;93.10
15099;DHT22;33900;53.640;9.942;2023-09-12T08:19:43;22.70;93.10
15099;DHT22;33900;53.640;9.942;2023-09-12T08:22:09;22.70;93.00
15099;DHT22;33900;53.640;9.942;2023-09-12T08:24:35;22.70;93.00
15099;DHT22;33900;53.640;9.942;2023-09-12T08:27:01;22.80;93.40
15099;DHT22;33900;53.640;9.942;2023-09-12T08:29:30;22.80;93.20
15099;DHT22;33900;53.640;9.942;2023-09-12T08:31:56;22.90;93.20
15099;DHT22;33900;53.640;9.942;2023-09-12T08:34:22;22.90;93.10
15099;DHT22;33900;53.640;9.942;2023-09-12T08:36:48;22.90;93.10
15099;DHT22;33900;53.640;9.942;2023-09-12T08:39:14;22.90;93.00
15099;DHT22;33900;53.640;9.942;2023-09-12T08:41:40;22.90;93.00
15099;DHT22;33900;53.640;9.942;2023-09-12T08:44:05;22.90;93.00
15099;DHT22;33900;53.640;9.942;2023-09-12T08:46:32;23.00;93.00
15099;DHT22;33900;53.640;9.942;2023-09-12T08:48:57;23.10;93.00
15099;DHT22;33900;53.640;9.942;2023-09-12T08:51:24;23.10;93.00
15099;DHT22;33900;53.640;9.942;2023-09-12T08:53:49;23.10;93.00
15099;DHT22;33900;53.640;9.942;2023-09-12T08:56:15;23.10;92.90
15099;DHT22;33900;53.640;9.942;2023-09-12T08:58:41;23.20;93.00
15099;DHT22;33900;53.640;9.942;2023-09-12T09:01:06;23.20;93.00
15099;DHT22;33900;53.640;9.942;2023-09-12T09:03:33;23.30;93.00
15099;DHT22;33900;53.640;9.942;2023-09-12T09:05:59;23.30;92.90
15099;DHT22;33900;53.640;9.942;2023-09-12T09:08:26;23.40;92.90
15099;DHT22;33900;53.640;9.942;2023-09-12T09:10:57;23.40;93.00
15099;DHT22;33900;53.640;9.942;2023-09-12T09:13:23;23.40;93.00
15099;DHT22;33900;53.640;9.942;2023-09-12T09:15:48;23.40;92.90
15099;DHT22;33900;53.640;9.942;2023-09-12T09:18:14;23.40;92.80
15099;DHT22;33900;53.640;9.942;2023-09-12T09:20:40;23.40;92.80
15099;DHT22;33900;53.640;9.942;2023-09-12T09:23:07;23.40;92.80
15099;DHT22;33900;53.640;9.942;2023-09-12T09:25:36;23.50;92.80
15099;DHT22;33900;53.640;9.942;2023-09-12T09:28:03;23.50;92.80
15099;DHT22;33900;53.640;9.942;2023-09-12T09:30:43;23.50;92.70
15099;DHT22;33900;53.640;9.942;2023-09-12T09:33:09;23.50;92.70
15099;DHT22;33900;53.640;9.942;2023-09-12T09:35:35;23.50;92.70
15099;DHT22;33900;53.640;9.942;2023-09-12T09:38:02;23.50;92.70
15099;DHT22;33900;53.640;9.942;2023-09-12T09:40:28;23.50;92.70
15099;DHT22;33900;53.640;9.942;2023-09-12T09:42:54;23.50;92.70
15099;DHT22;33900;53.640;9.942;2023-09-12T09:45:21;23.60;92.70
15099;DHT22;33900;53.640;9.942;2023-09-12T09:47:48;23.60;92.70
15099;DHT22;33900;53.640;9.942;2023-09-12T09:50:14;23.60;92.60
15099;DHT22;33900;53.640;9.942;2023-09-12T09:52:40;23.60;92.60
15099;DHT22;33900;53.640;9.942;2023-09-12T09:55:12;23.60;92.60
15099;DHT22;33900;53.640;9.942;2023-09-12T09:57:39;23.60;92.60
15099;DHT22;33900;53.640;9.942;2023-09-12T10:00:05;23.60;92.60
15099;DHT22;33900;53.640;9.942;2023-09-12T10:02:35;23.50;92.60
15099;DHT22;33900;53.640;9.942;2023-09-12T10:05:01;23.50;92.60
15099;DHT22;33900;53.640;9.942;2023-09-12T10:07:30;23.50;92.60
15099;DHT22;33900;53.640;9.942;2023-09-12T10:09:57;23.60;92.60
15099;DHT22;33900;53.640;9.942;2023-09-12T10:12:24;23.50;92.50
15099;DHT22;33900;53.640;9.942;2023-09-12T10:14:49;23.60;92.50
15099;DHT22;33900;53.640;9.942;2023-09-12T10:17:15;23.60;92.60
15099;DHT22;33900;53.640;9.942;2023-09-12T10:19:54;23.60;92.50
15099;DHT22;33900;53.640;9.942;2023-09-12T10:22:25;23.60;92.50
15099;DHT22;33900;53.640;9.942;2023-09-12T10:24:52;23.60;92.50
15099;DHT22;33900;53.640;9.942;2023-09-12T10:27:19;23.60;92.50
15099;DHT22;33900;53.640;9.942;2023-09-12T10:29:46;23.60;92.40
15099;DHT22;33900;53.640;9.942;2023-09-12T10:32:14;23.60;92.40
15099;DHT22;33900;53.640;9.942;2023-09-12T10:34:39;23.60;92.40
15099;DHT22;33900;53.640;9.942;2023-09-12T10:37:10;23.60;92.40
15099;DHT22;33900;53.640;9.942;2023-09-12T10:39:37;23.60;92.40
15099;DHT22;33900;53.640;9.942;2023-09-12T10:42:04;23.60;92.40
15099;DHT22;33900;53.640;9.942;2023-09-12T10:44:30;23.60;92.40
15099;DHT22;33900;53.640;9.942;2023-09-12T10:46:56;23.60;92.30
15099;DHT22;33900;53.640;9.942;2023-09-12T10:49:23;23.60;92.30
15099;DHT22;33900;53.640;9.942;2023-09-12T10:51:48;23.60;92.30
15099;DHT22;33900;53.640;9.942;2023-09-12T10:54:22;23.60;92.30
15099;DHT22;33900;53.640;9.942;2023-09-12T10:57:04;23.60;92.30
15099;DHT22;33900;53.640;9.942;2023-09-12T10:59:30;23.60;92.30
15099;DHT22;33900;53.640;9.942;2023-09-12T11:04:46;23.50;92.30
15099;DHT22;33900;53.640;9.942;2023-09-12T11:12:40;23.50;92.30
15099;DHT22;33900;53.640;9.942;2023-09-12T11:15:06;23.50;92.30
15099;DHT22;33900;53.640;9.942;2023-09-12T11:17:36;23.50;92.30
15099;DHT22;33900;53.640;9.942;2023-09-12T11:20:02;23.50;92.30
15099;DHT22;33900;53.640;9.942;2023-09-12T11:22:42;23.50;92.30
15099;DHT22;33900;53.640;9.942;2023-09-12T11:25:23;23.50;92.30
15099;DHT22;33900;53.640;9.942;2023-09-12T11:30:18;23.50;92.30
15099;DHT22;33900;53.640;9.942;2023-09-12T11:32:45;23.40;92.20
15099;DHT22;33900;53.640;9.942;2023-09-12T11:35:11;23.50;92.20
15099;DHT22;33900;53.640;9.942;2023-09-12T11:37:38;23.50;92.20
15099;DHT22;33900;53.640;9.942;2023-09-12T11:40:23;23.40;92.50
15099;DHT22;33900;53.640;9.942;2023-09-12T11:42:48;23.40;92.20
15099;DHT22;33900;53.640;9.942;2023-09-12T11:45:18;23.40;92.20
15099;DHT22;33900;53.640;9.942;2023-09-12T11:47:44;23.40;92.20
15099;DHT22;33900;53.640;9.942;2023-09-12T11:50:26;23.40;92.20
15099;DHT22;33900;53.640;9.942;2023-09-12T11:53:26;23.40;92.20
15099;DHT22;33900;53.640;9.942;2023-09-12T11:55:45;23.40;92.20
15099;DHT22;33900;53.640;9.942;2023-09-12T11:58:12;23.40;92.20
15099;DHT22;33900;53.640;9.942;2023-09-12T12:00:42;23.40;92.20
15099;DHT22;33900;53.640;9.942;2023-09-12T12:03:08;23.40;92.20
15099;DHT22;33900;53.640;9.942;2023-09-12T12:05:34;23.40;92.20
15099;DHT22;33900;53.640;9.942;2023-09-12T12:07:59;23.30;92.20
15099;DHT22;33900;53.640;9.942;2023-09-12T12:10:25;23.40;92.20
15099;DHT22;33900;53.640;9.942;2023-09-12T12:12:53;23.40;92.20
15099;DHT22;33900;53.640;9.942;2023-09-12T12:15:19;23.40;92.20
15099;DHT22;33900;53.640;9.942;2023-09-12T12:17:45;23.40;92.40
15099;DHT22;33900;53.640;9.942;2023-09-12T12:20:10;23.40;92.20
15099;DHT22;33900;53.640;9.942;2023-09-12T12:22:37;23.30;92.20
15099;DHT22;33900;53.640;9.942;2023-09-12T12:25:06;23.30;92.20
15099;DHT22;33900;53.640;9.942;2023-09-12T12:27:34;23.30;92.20
15099;DHT22;33900;53.640;9.942;2023-09-12T12:30:00;23.30;92.20
15099;DHT22;33900;53.640;9.942;2023-09-12T12:32:26;23.30;92.20
15099;DHT22;33900;53.640;9.942;2023-09-12T12:34:51;23.30;92.20
15099;DHT22;33900;53.640;9.942;2023-09-12T12:37:17;23.20;92.30
15099;DHT22;33900;53.640;9.942;2023-09-12T12:39:43;23.30;92.30
15099;DHT22;33900;53.640;9.942;2023-09-12T12:42:09;23.30;92.40
15099;DHT22;33900;53.640;9.942;2023-09-12T12:44:34;23.30;92.30
15099;DHT22;33900;53.640;9.942;2023-09-12T12:47:06;23.30;92.40
15099;DHT22;33900;53.640;9.942;2023-09-12T12:49:36;23.30;92.40
15099;DHT22;33900;53.640;9.942;2023-09-12T12:52:01;23.30;92.30
15099;DHT22;33900;53.640;9.942;2023-09-12T12:54:30;23.30;92.30
15099;DHT22;33900;53.640;9.942;2023-09-12T12:56:56;23.30;92.30
15099;DHT22;33900;53.640;9.942;2023-09-12T12:59:22;23.30;92.40
15099;DHT22;33900;53.640;9.942;2023-09-12T13:01:48;23.40;92.40
15099;DHT22;33900;53.640;9.942;2023-09-12T13:04:13;23.30;92.40
15099;DHT22;33900;53.640;9.942;2023-09-12T13:06:39;23.30;92.40
15099;DHT22;33900;53.640;9.942;2023-09-12T13:09:06;23.40;92.50
15099;DHT22;33900;53.640;9.942;2023-09-12T13:11:31;23.50;92.40
15099;DHT22;33900;53.640;9.942;2023-09-12T13:14:01;23.50;92.40
15099;DHT22;33900;53.640;9.942;2023-09-12T13:16:27;23.50;92.40
15099;DHT22;33900;53.640;9.942;2023-09-12T13:18:53;23.60;92.40
15099;DHT22;33900;53.640;9.942;2023-09-12T13:21:19;23.60;92.40
15099;DHT22;33900;53.640;9.942;2023-09-12T13:23:44;23.60;92.30
15099;DHT22;33900;53.640;9.942;2023-09-12T13:26:10;23.70;92.30
15099;DHT22;33900;53.640;9.942;2023-09-12T13:28:36;23.70;92.30
15099;DHT22;33900;53.640;9.942;2023-09-12T13:31:03;23.70;92.30
15099;DHT22;33900;53.640;9.942;2023-09-12T13:33:29;23.70;92.30
15099;DHT22;33900;53.640;9.942;2023-09-12T13:35:54;23.80;92.40
15099;DHT22;33900;53.640;9.942;2023-09-12T13:38:20;23.80;92.40
15099;DHT22;33900;53.640;9.942;2023-09-12T13:40:47;23.80;92.50
15099;DHT22;33900;53.640;9.942;2023-09-12T13:43:12;23.80;92.40
15099;DHT22;33900;53.640;9.942;2023-09-12T13:45:38;23.80;92.50
15099;DHT22;33900;53.640;9.942;2023-09-12T13:48:04;23.80;92.50
15099;DHT22;33900;53.640;9.942;2023-09-12T13:50:30;23.80;92.40
15099;DHT22;33900;53.640;9.942;2023-09-12T13:52:58;23.80;92.30
15099;DHT22;33900;53.640;9.942;2023-09-12T13:55:29;23.80;92.30
15099;DHT22;33900;53.640;9.942;2023-09-12T13:57:56;23.80;92.30
15099;DHT22;33900;53.640;9.942;2023-09-12T14:00:21;23.70;92.30
15099;DHT22;33900;53.640;9.942;2023-09-12T14:02:47;23.70;92.30
15099;DHT22;33900;53.640;9.942;2023-09-12T14:05:12;23.70;92.30
15099;DHT22;33900;53.640;9.942;2023-09-12T14:07:38;23.80;92.30
15099;DHT22;33900;53.640;9.942;2023-09-12T14:10:08;23.80;92.30
15099;DHT22;33900;53.640;9.942;2023-09-12T14:12:34;23.80;92.30
15099;DHT22;33900;53.640;9.942;2023-09-12T14:15:00;23.80;92.30
15099;DHT22;33900;53.640;9.942;2023-09-12T14:17:25;23.80;92.30
15099;DHT22;33900;53.640;9.942;2023-09-12T14:19:52;23.90;92.30
15099;DHT22;33900;53.640;9.942;2023-09-12T14:22:18;23.90;92.30
15099;DHT22;33900;53.640;9.942;2023-09-12T14:24:43;24.00;92.30
15099;DHT22;33900;53.640;9.942;2023-09-12T14:27:09;24.00;92.20
15099;DHT22;33900;53.640;9.942;2023-09-12T14:29:34;24.00;92.20
15099;DHT22;33900;53.640;9.942;2023-09-12T14:32:00;24.10;92.20
15099;DHT22;33900;53.640;9.942;2023-09-12T14:34:26;24.10;92.20
15099;DHT22;33900;53.640;9.942;2023-09-12T14:36:55;24.10;92.20
15099;DHT22;33900;53.640;9.942;2023-09-12T14:39:21;24.10;92.10
15099;DHT22;33900;53.640;9.942;2023-09-12T14:41:47;24.10;92.10
15099;DHT22;33900;53.640;9.942;2023-09-12T14:44:26;24.10;92.10
15099;DHT22;33900;53.640;9.942;2023-09-12T14:46:53;24.00;92.10
15099;DHT22;33900;53.640;9.942;2023-09-12T14:49:19;24.00;92.10
15099;DHT22;33900;53.640;9.942;2023-09-12T14:51:45;24.10;92.10
15099;DHT22;33900;53.640;9.942;2023-09-12T14:54:10;24.00;92.00
15099;DHT22;33900;53.640;9.942;2023-09-12T14:56:36;24.10;92.00
15099;DHT22;33900;53.640;9.942;2023-09-12T14:59:03;24.10;92.00
15099;DHT22;33900;53.640;9.942;2023-09-12T15:01:29;24.10;92.00
15099;DHT22;33900;53.640;9.942;2023-09-12T15:03:54;24.20;92.00
15099;DHT22;33900;53.640;9.942;2023-09-12T15:06:20;24.10;91.90
15099;DHT22;33900;53.640;9.942;2023-09-12T15:08:49;24.20;91.90
15099;DHT22;33900;53.640;9.942;2023-09-12T15:11:14;24.20;91.90
15099;DHT22;33900;53.640;9.942;2023-09-12T15:13:40;24.20;91.90
15099;DHT22;33900;53.640;9.942;2023-09-12T15:16:06;24.30;91.90
15099;DHT22;33900;53.640;9.942;2023-09-12T15:18:32;24.30;91.80
15099;DHT22;33900;53.640;9.942;2023-09-12T15:20:57;24.30;91.80
15099;DHT22;33900;53.640;9.942;2023-09-12T15:23:23;24.30;91.80
15099;DHT22;33900;53.640;9.942;2023-09-12T15:25:50;24.30;91.80
15099;DHT22;33900;53.640;9.942;2023-09-12T15:28:15;24.30;91.70
15099;DHT22;33900;53.640;9.942;2023-09-12T15:30:41;24.30;91.70
15099;DHT22;33900;53.640;9.942;2023-09-12T15:33:07;24.20;91.70
15099;DHT22;33900;53.640;9.942;2023-09-12T15:35:33;24.20;91.70
15099;DHT22;33900;53.640;9.942;2023-09-12T15:37:58;24.20;91.70
15099;DHT22;33900;53.640;9.942;2023-09-12T15:40:24;24.20;91.70
15099;DHT22;33900;53.640;9.942;2023-09-12T15:42:49;24.20;91.70
15099;DHT22;33900;53.640;9.942;2023-09-12T15:45:15;24.20;91.70